sensor_id;sensor_type;location;lat;lon;timestamp;P1;durP1;ratioP1;P2;durP2;ratioP2
23676;SDS011;31493;49.058;12.190;2023-11-19T00:00:06;22.38;;;11.30;;
23676;SDS011;31493;49.058;12.190;2023-11-19T00:02:39;67.35;;;13.40;;
23676;SDS011;31493;49.058;12.190;2023-11-19T00:05:06;42.20;;;11.82;;
23676;SDS011;31493;49.058;12.190;2023-11-19T00:07:35;229.55;;;15.90;;
23676;SDS011;31493;49.058;12.190;2023-11-19T00:10:03;294.48;;;17.08;;
23676;SDS011;31493;49.058;12.190;2023-11-19T00:12:32;263.67;;;15.15;;
23676;SDS011;31493;49.058;12.190;2023-11-19T00:14:59;226.00;;;13.27;;
23676;SDS011;31493;49.058;12.190;2023-11-19T00:17:28;106.25;;;11.80;;
23676;SDS011;31493;49.058;12.190;2023-11-19T00:19:56;310.15;;;17.60;;
23676;SDS011;31493;49.058;12.190;2023-11-19T00:22:23;293.08;;;15.07;;
23676;SDS011;31493;49.058;12.190;2023-11-19T00:24:51;538.38;;;21.63;;
23676;SDS011;31493;49.058;12.190;2023-11-19T00:27:18;241.00;;;14.20;;
23676;SDS011;31493;49.058;12.190;2023-11-19T00:29:46;128.10;;;12.73;;
23676;SDS011;31493;49.058;12.190;2023-11-19T00:32:13;320.00;;;14.27;;
23676;SDS011;31493;49.058;12.190;2023-11-19T00:34:42;186.82;;;12.63;;
23676;SDS011;31493;49.058;12.190;2023-11-19T00:37:11;90.28;;;9.38;;
23676;SDS011;31493;49.058;12.190;2023-11-19T00:39:38;24.23;;;6.50;;
23676;SDS011;31493;49.058;12.190;2023-11-19T00:42:05;22.17;;;8.43;;
23676;SDS011;31493;49.058;12.190;2023-11-19T00:44:32;43.00;;;7.25;;
23676;SDS011;31493;49.058;12.190;2023-11-19T00:46:59;63.42;;;9.27;;
23676;SDS011;31493;49.058;12.190;2023-11-19T00:49:26;198.60;;;12.32;;
23676;SDS011;31493;49.058;12.190;2023-11-19T00:51:54;260.35;;;13.02;;
23676;SDS011;31493;49.058;12.190;2023-11-19T00:54:22;258.73;;;12.18;;
23676;SDS011;31493;49.058;12.190;2023-11-19T00:56:51;262.17;;;12.52;;
23676;SDS011;31493;49.058;12.190;2023-11-19T00:59:18;255.75;;;12.85;;
23676;SDS011;31493;49.058;12.190;2023-11-19T01:01:45;192.82;;;9.90;;
23676;SDS011;31493;49.058;12.190;2023-11-19T01:04:13;207.70;;;10.27;;
23676;SDS011;31493;49.058;12.190;2023-11-19T01:06:40;374.42;;;15.63;;
23676;SDS011;31493;49.058;12.190;2023-11-19T01:09:08;105.73;;;9.73;;
23676;SDS011;31493;49.058;12.190;2023-11-19T01:11:37;30.05;;;6.50;;
23676;SDS011;31493;49.058;12.190;2023-11-19T01:14:04;55.20;;;8.23;;
23676;SDS011;31493;49.058;12.190;2023-11-19T01:16:31;132.13;;;8.88;;
23676;SDS011;31493;49.058;12.190;2023-11-19T01:18:58;8.00;;;5.82;;
23676;SDS011;31493;49.058;12.190;2023-11-19T01:21:29;11.50;;;6.72;;
23676;SDS011;31493;49.058;12.190;2023-11-19T01:23:57;74.53;;;7.32;;
23676;SDS011;31493;49.058;12.190;2023-11-19T01:26:25;19.10;;;6.50;;
23676;SDS011;31493;49.058;12.190;2023-11-19T01:28:53;26.02;;;6.57;;
23676;SDS011;31493;49.058;12.190;2023-11-19T01:31:20;46.13;;;7.68;;
23676;SDS011;31493;49.058;12.190;2023-11-19T01:33:47;75.03;;;8.40;;
23676;SDS011;31493;49.058;12.190;2023-11-19T01:36:14;14.88;;;5.18;;
23676;SDS011;31493;49.058;12.190;2023-11-19T01:38:41;34.35;;;5.60;;
23676;SDS011;31493;49.058;12.190;2023-11-19T01:41:09;20.13;;;6.45;;
23676;SDS011;31493;49.058;12.190;2023-11-19T01:43:36;39.08;;;6.40;;
23676;SDS011;31493;49.058;12.190;2023-11-19T01:46:05;45.35;;;6.20;;
23676;SDS011;31493;49.058;12.190;2023-11-19T01:48:35;65.90;;;6.15;;
23676;SDS011;31493;49.058;12.190;2023-11-19T01:51:06;32.35;;;4.68;;
23676;SDS011;31493;49.058;12.190;2023-11-19T01:53:35;22.80;;;5.38;;
23676;SDS011;31493;49.058;12.190;2023-11-19T01:56:04;13.05;;;3.92;;
23676;SDS011;31493;49.058;12.190;2023-11-19T01:58:35;17.17;;;4.15;;
23676;SDS011;31493;49.058;12.190;2023-11-19T02:01:02;7.18;;;4.18;;
23676;SDS011;31493;49.058;12.190;2023-11-19T02:03:31;40.30;;;5.70;;
23676;SDS011;31493;49.058;12.190;2023-11-19T02:08:26;5.38;;;4.47;;
23676;SDS011;31493;49.058;12.190;2023-11-19T02:10:53;30.23;;;4.63;;
23676;SDS011;31493;49.058;12.190;2023-11-19T02:13:22;25.80;;;4.22;;
23676;SDS011;31493;49.058;12.190;2023-11-19T02:15:50;7.77;;;4.90;;
23676;SDS011;31493;49.058;12.190;2023-11-19T02:18:18;5.18;;;4.35;;
23676;SDS011;31493;49.058;12.190;2023-11-19T02:20:47;9.05;;;4.60;;
23676;SDS011;31493;49.058;12.190;2023-11-19T02:23:15;11.00;;;3.20;;
23676;SDS011;31493;49.058;12.190;2023-11-19T02:25:43;11.23;;;4.37;;
23676;SDS011;31493;49.058;12.190;2023-11-19T02:28:22;3.80;;;3.40;;
23676;SDS011;31493;49.058;12.190;2023-11-19T02:30:50;4.25;;;3.63;;
23676;SDS011;31493;49.058;12.190;2023-11-19T02:33:17;3.47;;;3.03;;
23676;SDS011;31493;49.058;12.190;2023-11-19T02:35:44;3.67;;;3.25;;
23676;SDS011;31493;49.058;12.190;2023-11-19T02:38:11;4.45;;;3.70;;
23676;SDS011;31493;49.058;12.190;2023-11-19T02:40:39;4.35;;;3.90;;
23676;SDS011;31493;49.058;12.190;2023-11-19T02:43:06;4.80;;;3.60;;
23676;SDS011;31493;49.058;12.190;2023-11-19T02:45:35;27.15;;;3.80;;
23676;SDS011;31493;49.058;12.190;2023-11-19T02:48:02;4.15;;;3.67;;
23676;SDS011;31493;49.058;12.190;2023-11-19T02:50:31;4.55;;;3.75;;
23676;SDS011;31493;49.058;12.190;2023-11-19T02:52:59;3.72;;;2.97;;
23676;SDS011;31493;49.058;12.190;2023-11-19T02:55:26;3.90;;;3.40;;
23676;SDS011;31493;49.058;12.190;2023-11-19T02:57:56;5.00;;;3.53;;
23676;SDS011;31493;49.058;12.190;2023-11-19T03:00:25;6.07;;;3.10;;
23676;SDS011;31493;49.058;12.190;2023-11-19T03:03:01;4.15;;;3.67;;
23676;SDS011;31493;49.058;12.190;2023-11-19T03:05:43;4.32;;;3.90;;
23676;SDS011;31493;49.058;12.190;2023-11-19T03:08:10;10.23;;;4.28;;
23676;SDS011;31493;49.058;12.190;2023-11-19T03:10:38;4.38;;;3.33;;
23676;SDS011;31493;49.058;12.190;2023-11-19T03:13:05;6.70;;;3.70;;
23676;SDS011;31493;49.058;12.190;2023-11-19T03:15:37;3.92;;;3.53;;
23676;SDS011;31493;49.058;12.190;2023-11-19T03:18:05;5.00;;;3.50;;
23676;SDS011;31493;49.058;12.190;2023-11-19T03:20:32;7.38;;;4.22;;
23676;SDS011;31493;49.058;12.190;2023-11-19T03:23:00;5.25;;;4.00;;
23676;SDS011;31493;49.058;12.190;2023-11-19T03:25:27;4.07;;;3.67;;
23676;SDS011;31493;49.058;12.190;2023-11-19T03:27:58;4.22;;;3.63;;
23676;SDS011;31493;49.058;12.190;2023-11-19T03:30:26;9.15;;;3.03;;
23676;SDS011;31493;49.058;12.190;2023-11-19T03:32:54;6.45;;;3.60;;
23676;SDS011;31493;49.058;12.190;2023-11-19T03:35:22;2.97;;;2.67;;
23676;SDS011;31493;49.058;12.190;2023-11-19T03:37:49;3.53;;;3.08;;
23676;SDS011;31493;49.058;12.190;2023-11-19T03:40:17;5.10;;;3.30;;
23676;SDS011;31493;49.058;12.190;2023-11-19T03:42:45;3.72;;;3.20;;
23676;SDS011;31493;49.058;12.190;2023-11-19T03:45:12;4.15;;;3.30;;
23676;SDS011;31493;49.058;12.190;2023-11-19T03:47:40;4.72;;;2.67;;
23676;SDS011;31493;49.058;12.190;2023-11-19T03:50:07;3.90;;;3.42;;
23676;SDS011;31493;49.058;12.190;2023-11-19T03:52:36;4.30;;;3.53;;
23676;SDS011;31493;49.058;12.190;2023-11-19T03:55:07;6.03;;;2.80;;
23676;SDS011;31493;49.058;12.190;2023-11-19T03:57:38;4.10;;;3.58;;
23676;SDS011;31493;49.058;12.190;2023-11-19T04:00:05;3.40;;;2.85;;
23676;SDS011;31493;49.058;12.190;2023-11-19T04:02:35;3.65;;;3.13;;
23676;SDS011;31493;49.058;12.190;2023-11-19T04:05:03;4.60;;;3.28;;
23676;SDS011;31493;49.058;12.190;2023-11-19T04:07:30;4.35;;;3.33;;
23676;SDS011;31493;49.058;12.190;2023-11-19T04:09:59;2.55;;;2.35;;
23676;SDS011;31493;49.058;12.190;2023-11-19T04:12:27;2.75;;;2.35;;
23676;SDS011;31493;49.058;12.190;2023-11-19T04:14:54;3.45;;;3.15;;
23676;SDS011;31493;49.058;12.190;2023-11-19T04:17:21;3.13;;;2.83;;
23676;SDS011;31493;49.058;12.190;2023-11-19T04:19:49;3.58;;;2.50;;
23676;SDS011;31493;49.058;12.190;2023-11-19T04:22:16;8.23;;;2.80;;
23676;SDS011;31493;49.058;12.190;2023-11-19T04:24:43;4.18;;;3.03;;
23676;SDS011;31493;49.058;12.190;2023-11-19T04:27:12;3.67;;;3.20;;
23676;SDS011;31493;49.058;12.190;2023-11-19T04:29:40;3.10;;;2.13;;
23676;SDS011;31493;49.058;12.190;2023-11-19T04:32:07;2.17;;;1.88;;
23676;SDS011;31493;49.058;12.190;2023-11-19T04:34:34;2.83;;;2.40;;
23676;SDS011;31493;49.058;12.190;2023-11-19T04:37:03;2.35;;;1.30;;
23676;SDS011;31493;49.058;12.190;2023-11-19T04:39:30;2.40;;;2.00;;
23676;SDS011;31493;49.058;12.190;2023-11-19T04:41:57;4.10;;;2.83;;
23676;SDS011;31493;49.058;12.190;2023-11-19T04:44:26;7.95;;;3.35;;
23676;SDS011;31493;49.058;12.190;2023-11-19T04:46:55;4.25;;;3.08;;
23676;SDS011;31493;49.058;12.190;2023-11-19T04:49:22;7.28;;;3.70;;
23676;SDS011;31493;49.058;12.190;2023-11-19T04:51:49;6.30;;;2.60;;
23676;SDS011;31493;49.058;12.190;2023-11-19T04:54:16;6.80;;;1.88;;
23676;SDS011;31493;49.058;12.190;2023-11-19T04:56:45;10.20;;;2.95;;
23676;SDS011;31493;49.058;12.190;2023-11-19T04:59:12;10.97;;;3.10;;
23676;SDS011;31493;49.058;12.190;2023-11-19T05:01:40;1.75;;;0.90;;
23676;SDS011;31493;49.058;12.190;2023-11-19T05:04:07;46.85;;;3.05;;
23676;SDS011;31493;49.058;12.190;2023-11-19T05:06:34;16.33;;;2.63;;
23676;SDS011;31493;49.058;12.190;2023-11-19T05:09:01;68.22;;;4.68;;
23676;SDS011;31493;49.058;12.190;2023-11-19T05:11:30;54.03;;;4.45;;
23676;SDS011;31493;49.058;12.190;2023-11-19T05:13:57;16.08;;;2.33;;
23676;SDS011;31493;49.058;12.190;2023-11-19T05:16:25;13.00;;;3.25;;
23676;SDS011;31493;49.058;12.190;2023-11-19T05:18:53;100.45;;;5.95;;
23676;SDS011;31493;49.058;12.190;2023-11-19T05:21:21;58.90;;;4.95;;
23676;SDS011;31493;49.058;12.190;2023-11-19T05:23:51;149.13;;;6.35;;
23676;SDS011;31493;49.058;12.190;2023-11-19T05:26:18;5.00;;;4.35;;
23676;SDS011;31493;49.058;12.190;2023-11-19T05:28:46;14.10;;;4.40;;
23676;SDS011;31493;49.058;12.190;2023-11-19T05:31:13;189.43;;;8.07;;
23676;SDS011;31493;49.058;12.190;2023-11-19T05:33:41;110.05;;;6.32;;
23676;SDS011;31493;49.058;12.190;2023-11-19T05:36:12;67.07;;;5.45;;
23676;SDS011;31493;49.058;12.190;2023-11-19T05:38:39;67.65;;;4.93;;
23676;SDS011;31493;49.058;12.190;2023-11-19T05:41:06;60.70;;;5.18;;
23676;SDS011;31493;49.058;12.190;2023-11-19T05:43:34;109.10;;;6.35;;
23676;SDS011;31493;49.058;12.190;2023-11-19T05:46:01;119.43;;;5.20;;
23676;SDS011;31493;49.058;12.190;2023-11-19T05:48:28;108.10;;;6.32;;
23676;SDS011;31493;49.058;12.190;2023-11-19T05:50:55;174.73;;;7.07;;
23676;SDS011;31493;49.058;12.190;2023-11-19T05:53:24;82.93;;;5.35;;
23676;SDS011;31493;49.058;12.190;2023-11-19T05:55:51;28.33;;;5.22;;
23676;SDS011;31493;49.058;12.190;2023-11-19T05:58:22;63.03;;;5.88;;
23676;SDS011;31493;49.058;12.190;2023-11-19T06:00:51;249.93;;;9.57;;
23676;SDS011;31493;49.058;12.190;2023-11-19T06:03:18;246.38;;;9.07;;
23676;SDS011;31493;49.058;12.190;2023-11-19T06:05:46;262.35;;;9.88;;
23676;SDS011;31493;49.058;12.190;2023-11-19T06:08:14;245.57;;;8.90;;
23676;SDS011;31493;49.058;12.190;2023-11-19T06:10:43;117.63;;;6.85;;
23676;SDS011;31493;49.058;12.190;2023-11-19T06:13:12;113.28;;;7.32;;
23676;SDS011;31493;49.058;12.190;2023-11-19T06:15:40;119.63;;;7.50;;
23676;SDS011;31493;49.058;12.190;2023-11-19T06:18:08;41.50;;;6.30;;
23676;SDS011;31493;49.058;12.190;2023-11-19T06:20:37;272.90;;;11.43;;
23676;SDS011;31493;49.058;12.190;2023-11-19T06:23:04;237.75;;;9.32;;
23676;SDS011;31493;49.058;12.190;2023-11-19T06:25:31;198.30;;;8.32;;
23676;SDS011;31493;49.058;12.190;2023-11-19T06:27:59;257.20;;;11.10;;
23676;SDS011;31493;49.058;12.190;2023-11-19T06:30:26;185.25;;;9.57;;
23676;SDS011;31493;49.058;12.190;2023-11-19T06:32:55;218.80;;;9.63;;
23676;SDS011;31493;49.058;12.190;2023-11-19T06:35:22;114.13;;;9.13;;
23676;SDS011;31493;49.058;12.190;2023-11-19T06:37:49;90.15;;;5.97;;
23676;SDS011;31493;49.058;12.190;2023-11-19T06:40:16;176.25;;;8.65;;
23676;SDS011;31493;49.058;12.190;2023-11-19T06:42:43;526.53;;;16.48;;
23676;SDS011;31493;49.058;12.190;2023-11-19T06:45:12;492.90;;;14.68;;
23676;SDS011;31493;49.058;12.190;2023-11-19T06:47:39;483.33;;;16.13;;
23676;SDS011;31493;49.058;12.190;2023-11-19T06:50:06;388.45;;;12.88;;
23676;SDS011;31493;49.058;12.190;2023-11-19T06:52:35;347.45;;;11.63;;
23676;SDS011;31493;49.058;12.190;2023-11-19T06:55:03;131.90;;;7.50;;
23676;SDS011;31493;49.058;12.190;2023-11-19T06:57:30;171.57;;;7.57;;
23676;SDS011;31493;49.058;12.190;2023-11-19T06:59:57;236.95;;;9.73;;
23676;SDS011;31493;49.058;12.190;2023-11-19T07:02:26;378.52;;;13.38;;
23676;SDS011;31493;49.058;12.190;2023-11-19T07:04:53;189.43;;;10.80;;
23676;SDS011;31493;49.058;12.190;2023-11-19T07:07:20;37.85;;;3.20;;
23676;SDS011;31493;49.058;12.190;2023-11-19T07:09:47;147.93;;;7.03;;
23676;SDS011;31493;49.058;12.190;2023-11-19T07:12:15;45.47;;;5.45;;
23676;SDS011;31493;49.058;12.190;2023-11-19T07:14:42;21.80;;;5.85;;
23676;SDS011;31493;49.058;12.190;2023-11-19T07:17:09;13.45;;;4.32;;
23676;SDS011;31493;49.058;12.190;2023-11-19T07:19:38;7.13;;;3.80;;
23676;SDS011;31493;49.058;12.190;2023-11-19T07:22:05;5.53;;;3.38;;
23676;SDS011;31493;49.058;12.190;2023-11-19T07:24:32;2.67;;;1.90;;
23676;SDS011;31493;49.058;12.190;2023-11-19T07:27:00;2.40;;;1.85;;
23676;SDS011;31493;49.058;12.190;2023-11-19T07:29:29;5.78;;;3.28;;
23676;SDS011;31493;49.058;12.190;2023-11-19T07:31:57;2.42;;;1.90;;
23676;SDS011;31493;49.058;12.190;2023-11-19T07:34:24;3.35;;;2.70;;
23676;SDS011;31493;49.058;12.190;2023-11-19T07:36:53;2.92;;;2.55;;
23676;SDS011;31493;49.058;12.190;2023-11-19T07:39:20;6.60;;;2.78;;
23676;SDS011;31493;49.058;12.190;2023-11-19T07:41:47;4.53;;;2.90;;
23676;SDS011;31493;49.058;12.190;2023-11-19T07:44:15;2.17;;;1.98;;
23676;SDS011;31493;49.058;12.190;2023-11-19T07:46:42;1.42;;;1.33;;
23676;SDS011;31493;49.058;12.190;2023-11-19T07:49:10;1.17;;;1.02;;
23676;SDS011;31493;49.058;12.190;2023-11-19T07:51:37;2.10;;;1.73;;
23676;SDS011;31493;49.058;12.190;2023-11-19T07:54:06;3.65;;;2.17;;
23676;SDS011;31493;49.058;12.190;2023-11-19T07:56:33;4.20;;;3.47;;
23676;SDS011;31493;49.058;12.190;2023-11-19T07:59:01;2.97;;;2.40;;
23676;SDS011;31493;49.058;12.190;2023-11-19T08:01:28;2.40;;;1.90;;
23676;SDS011;31493;49.058;12.190;2023-11-19T08:03:55;1.70;;;1.50;;
23676;SDS011;31493;49.058;12.190;2023-11-19T08:06:22;4.50;;;4.10;;
23676;SDS011;31493;49.058;12.190;2023-11-19T08:08:49;5.75;;;2.97;;
23676;SDS011;31493;49.058;12.190;2023-11-19T08:11:17;2.90;;;2.50;;
23676;SDS011;31493;49.058;12.190;2023-11-19T08:13:47;2.90;;;2.58;;
23676;SDS011;31493;49.058;12.190;2023-11-19T08:16:14;5.93;;;2.45;;
23676;SDS011;31493;49.058;12.190;2023-11-19T08:18:43;2.60;;;2.35;;
23676;SDS011;31493;49.058;12.190;2023-11-19T08:21:10;2.95;;;2.53;;
23676;SDS011;31493;49.058;12.190;2023-11-19T08:23:37;1.63;;;1.52;;
23676;SDS011;31493;49.058;12.190;2023-11-19T08:26:04;1.67;;;1.17;;
23676;SDS011;31493;49.058;12.190;2023-11-19T08:28:33;2.90;;;2.53;;
23676;SDS011;31493;49.058;12.190;2023-11-19T08:33:27;5.18;;;1.25;;
23676;SDS011;31493;49.058;12.190;2023-11-19T08:35:54;5.22;;;2.83;;
23676;SDS011;31493;49.058;12.190;2023-11-19T08:38:21;5.68;;;2.55;;
23676;SDS011;31493;49.058;12.190;2023-11-19T08:40:48;3.85;;;3.40;;
23676;SDS011;31493;49.058;12.190;2023-11-19T08:43:16;4.07;;;3.45;;
23676;SDS011;31493;49.058;12.190;2023-11-19T08:45:44;6.22;;;3.58;;
23676;SDS011;31493;49.058;12.190;2023-11-19T08:48:11;6.07;;;3.28;;
23676;SDS011;31493;49.058;12.190;2023-11-19T08:50:38;86.40;;;4.68;;
23676;SDS011;31493;49.058;12.190;2023-11-19T08:53:05;7.57;;;1.83;;
23676;SDS011;31493;49.058;12.190;2023-11-19T08:55:32;20.45;;;3.22;;
23676;SDS011;31493;49.058;12.190;2023-11-19T08:57:59;2.72;;;1.98;;
23676;SDS011;31493;49.058;12.190;2023-11-19T09:00:26;11.60;;;7.38;;
23676;SDS011;31493;49.058;12.190;2023-11-19T09:02:55;18.73;;;4.47;;
23676;SDS011;31493;49.058;12.190;2023-11-19T09:05:23;10.77;;;3.88;;
23676;SDS011;31493;49.058;12.190;2023-11-19T09:07:50;33.30;;;4.88;;
23676;SDS011;31493;49.058;12.190;2023-11-19T09:10:18;4.25;;;3.65;;
23676;SDS011;31493;49.058;12.190;2023-11-19T09:12:45;15.73;;;5.38;;
23676;SDS011;31493;49.058;12.190;2023-11-19T09:15:12;141.43;;;6.90;;
23676;SDS011;31493;49.058;12.190;2023-11-19T09:17:39;19.27;;;5.05;;
23676;SDS011;31493;49.058;12.190;2023-11-19T09:20:08;10.95;;;2.75;;
23676;SDS011;31493;49.058;12.190;2023-11-19T09:22:38;62.83;;;6.00;;
23676;SDS011;31493;49.058;12.190;2023-11-19T09:25:05;22.02;;;4.57;;
23676;SDS011;31493;49.058;12.190;2023-11-19T09:27:33;37.92;;;4.70;;
23676;SDS011;31493;49.058;12.190;2023-11-19T09:30:00;127.15;;;6.05;;
23676;SDS011;31493;49.058;12.190;2023-11-19T09:32:27;8.23;;;2.10;;
23676;SDS011;31493;49.058;12.190;2023-11-19T09:34:54;6.30;;;4.32;;
23676;SDS011;31493;49.058;12.190;2023-11-19T09:37:22;4.05;;;3.13;;
23676;SDS011;31493;49.058;12.190;2023-11-19T09:39:49;163.45;;;6.22;;
23676;SDS011;31493;49.058;12.190;2023-11-19T09:42:16;8.50;;;3.78;;
23676;SDS011;31493;49.058;12.190;2023-11-19T09:44:43;6.90;;;4.85;;
23676;SDS011;31493;49.058;12.190;2023-11-19T09:47:11;7.25;;;5.85;;
23676;SDS011;31493;49.058;12.190;2023-11-19T09:49:40;5.85;;;4.93;;
23676;SDS011;31493;49.058;12.190;2023-11-19T09:52:07;11.60;;;6.22;;
23676;SDS011;31493;49.058;12.190;2023-11-19T09:54:36;12.93;;;4.90;;
23676;SDS011;31493;49.058;12.190;2023-11-19T09:57:03;9.80;;;3.88;;
23676;SDS011;31493;49.058;12.190;2023-11-19T09:59:31;12.40;;;7.30;;
23676;SDS011;31493;49.058;12.190;2023-11-19T10:01:59;16.83;;;6.13;;
23676;SDS011;31493;49.058;12.190;2023-11-19T10:04:27;16.17;;;10.77;;
23676;SDS011;31493;49.058;12.190;2023-11-19T10:06:56;5.63;;;4.03;;
23676;SDS011;31493;49.058;12.190;2023-11-19T10:09:23;6.03;;;4.65;;
23676;SDS011;31493;49.058;12.190;2023-11-19T10:11:52;6.80;;;5.70;;
23676;SDS011;31493;49.058;12.190;2023-11-19T10:14:19;8.10;;;7.03;;
23676;SDS011;31493;49.058;12.190;2023-11-19T10:16:54;11.15;;;8.82;;
23676;SDS011;31493;49.058;12.190;2023-11-19T10:19:21;8.45;;;6.47;;
23676;SDS011;31493;49.058;12.190;2023-11-19T10:21:48;12.05;;;8.07;;
23676;SDS011;31493;49.058;12.190;2023-11-19T10:24:16;7.78;;;6.47;;
23676;SDS011;31493;49.058;12.190;2023-11-19T10:26:43;7.90;;;6.55;;
23676;SDS011;31493;49.058;12.190;2023-11-19T10:29:13;7.00;;;6.30;;
23676;SDS011;31493;49.058;12.190;2023-11-19T10:31:40;7.03;;;6.25;;
23676;SDS011;31493;49.058;12.190;2023-11-19T10:34:24;7.57;;;6.78;;
23676;SDS011;31493;49.058;12.190;2023-11-19T10:36:52;8.32;;;7.13;;
23676;SDS011;31493;49.058;12.190;2023-11-19T10:39:19;7.93;;;7.00;;
23676;SDS011;31493;49.058;12.190;2023-11-19T10:41:46;9.27;;;7.40;;
23676;SDS011;31493;49.058;12.190;2023-11-19T10:47:08;8.18;;;6.15;;
23676;SDS011;31493;49.058;12.190;2023-11-19T10:49:36;6.72;;;6.00;;
23676;SDS011;31493;49.058;12.190;2023-11-19T10:52:04;6.77;;;4.87;;
23676;SDS011;31493;49.058;12.190;2023-11-19T10:54:33;7.45;;;6.55;;
23676;SDS011;31493;49.058;12.190;2023-11-19T10:57:01;6.82;;;6.05;;
23676;SDS011;31493;49.058;12.190;2023-11-19T10:59:30;7.95;;;6.60;;
23676;SDS011;31493;49.058;12.190;2023-11-19T11:01:57;6.10;;;5.32;;
23676;SDS011;31493;49.058;12.190;2023-11-19T11:04:33;6.95;;;5.85;;
23676;SDS011;31493;49.058;12.190;2023-11-19T11:07:07;5.30;;;4.80;;
23676;SDS011;31493;49.058;12.190;2023-11-19T11:09:35;4.10;;;3.65;;
23676;SDS011;31493;49.058;12.190;2023-11-19T11:12:03;4.00;;;3.60;;
23676;SDS011;31493;49.058;12.190;2023-11-19T11:14:33;4.97;;;3.78;;
23676;SDS011;31493;49.058;12.190;2023-11-19T11:17:06;4.35;;;3.33;;
23676;SDS011;31493;49.058;12.190;2023-11-19T11:19:37;4.25;;;3.85;;
23676;SDS011;31493;49.058;12.190;2023-11-19T11:22:05;4.30;;;3.83;;
23676;SDS011;31493;49.058;12.190;2023-11-19T11:27:34;8.02;;;5.32;;
23676;SDS011;31493;49.058;12.190;2023-11-19T11:30:14;6.15;;;4.82;;
23676;SDS011;31493;49.058;12.190;2023-11-19T11:32:54;5.75;;;4.47;;
23676;SDS011;31493;49.058;12.190;2023-11-19T11:35:37;4.35;;;3.30;;
23676;SDS011;31493;49.058;12.190;2023-11-19T11:38:15;3.25;;;2.85;;
23676;SDS011;31493;49.058;12.190;2023-11-19T11:43:44;5.50;;;3.33;;
23676;SDS011;31493;49.058;12.190;2023-11-19T11:49:12;4.03;;;3.30;;
23676;SDS011;31493;49.058;12.190;2023-11-19T11:51:58;6.70;;;3.47;;
23676;SDS011;31493;49.058;12.190;2023-11-19T11:54:29;4.55;;;3.47;;
23676;SDS011;31493;49.058;12.190;2023-11-19T11:57:01;3.53;;;3.10;;
23676;SDS011;31493;49.058;12.190;2023-11-19T11:59:34;4.10;;;3.17;;
23676;SDS011;31493;49.058;12.190;2023-11-19T12:02:04;2.67;;;2.47;;
23676;SDS011;31493;49.058;12.190;2023-11-19T12:04:31;5.15;;;2.90;;
23676;SDS011;31493;49.058;12.190;2023-11-19T12:07:06;4.32;;;2.70;;
23676;SDS011;31493;49.058;12.190;2023-11-19T12:09:36;2.33;;;2.13;;
23676;SDS011;31493;49.058;12.190;2023-11-19T12:15:02;2.90;;;2.63;;
23676;SDS011;31493;49.058;12.190;2023-11-19T12:17:41;4.03;;;3.22;;
23676;SDS011;31493;49.058;12.190;2023-11-19T12:20:15;3.97;;;2.70;;
23676;SDS011;31493;49.058;12.190;2023-11-19T12:22:44;7.63;;;3.05;;
23676;SDS011;31493;49.058;12.190;2023-11-19T12:25:13;3.72;;;2.90;;
23676;SDS011;31493;49.058;12.190;2023-11-19T12:27:43;4.43;;;2.90;;
23676;SDS011;31493;49.058;12.190;2023-11-19T12:32:38;5.93;;;2.65;;
23676;SDS011;31493;49.058;12.190;2023-11-19T12:35:06;2.63;;;2.40;;
23676;SDS011;31493;49.058;12.190;2023-11-19T12:37:40;3.58;;;2.28;;
23676;SDS011;31493;49.058;12.190;2023-11-19T12:40:13;3.58;;;2.65;;
23676;SDS011;31493;49.058;12.190;2023-11-19T12:42:41;4.35;;;2.30;;
23676;SDS011;31493;49.058;12.190;2023-11-19T12:45:08;2.85;;;2.17;;
23676;SDS011;31493;49.058;12.190;2023-11-19T12:47:38;3.28;;;2.38;;
23676;SDS011;31493;49.058;12.190;2023-11-19T12:50:06;5.00;;;3.58;;
23676;SDS011;31493;49.058;12.190;2023-11-19T12:52:34;6.82;;;2.25;;
23676;SDS011;31493;49.058;12.190;2023-11-19T12:55:01;3.75;;;2.83;;
23676;SDS011;31493;49.058;12.190;2023-11-19T12:57:39;3.60;;;2.42;;
23676;SDS011;31493;49.058;12.190;2023-11-19T13:00:08;4.00;;;2.05;;
23676;SDS011;31493;49.058;12.190;2023-11-19T13:02:47;2.22;;;1.88;;
23676;SDS011;31493;49.058;12.190;2023-11-19T13:05:22;6.95;;;1.80;;
23676;SDS011;31493;49.058;12.190;2023-11-19T13:07:57;2.72;;;1.50;;
23676;SDS011;31493;49.058;12.190;2023-11-19T13:10:25;2.65;;;1.58;;
23676;SDS011;31493;49.058;12.190;2023-11-19T13:13:06;1.80;;;1.33;;
23676;SDS011;31493;49.058;12.190;2023-11-19T13:15:35;2.63;;;1.50;;
23676;SDS011;31493;49.058;12.190;2023-11-19T13:18:02;3.13;;;1.70;;
23676;SDS011;31493;49.058;12.190;2023-11-19T13:20:29;2.85;;;1.67;;
23676;SDS011;31493;49.058;12.190;2023-11-19T13:22:57;2.35;;;1.75;;
23676;SDS011;31493;49.058;12.190;2023-11-19T13:25:25;2.28;;;1.70;;
23676;SDS011;31493;49.058;12.190;2023-11-19T13:27:52;4.00;;;1.83;;
23676;SDS011;31493;49.058;12.190;2023-11-19T13:30:22;3.67;;;1.50;;
23676;SDS011;31493;49.058;12.190;2023-11-19T13:32:50;2.38;;;1.60;;
23676;SDS011;31493;49.058;12.190;2023-11-19T13:35:20;2.25;;;1.50;;
23676;SDS011;31493;49.058;12.190;2023-11-19T13:37:48;2.92;;;1.50;;
23676;SDS011;31493;49.058;12.190;2023-11-19T13:40:15;3.22;;;1.50;;
23676;SDS011;31493;49.058;12.190;2023-11-19T13:42:42;3.47;;;1.60;;
23676;SDS011;31493;49.058;12.190;2023-11-19T13:45:09;2.75;;;1.35;;
23676;SDS011;31493;49.058;12.190;2023-11-19T13:47:39;4.15;;;1.60;;
23676;SDS011;31493;49.058;12.190;2023-11-19T13:50:08;2.92;;;1.20;;
23676;SDS011;31493;49.058;12.190;2023-11-19T13:52:36;2.30;;;1.10;;
23676;SDS011;31493;49.058;12.190;2023-11-19T13:55:06;3.10;;;1.48;;
23676;SDS011;31493;49.058;12.190;2023-11-19T13:57:34;2.63;;;1.08;;
23676;SDS011;31493;49.058;12.190;2023-11-19T14:00:01;3.08;;;1.40;;
23676;SDS011;31493;49.058;12.190;2023-11-19T14:02:31;2.58;;;1.40;;
23676;SDS011;31493;49.058;12.190;2023-11-19T14:04:59;2.65;;;1.35;;
23676;SDS011;31493;49.058;12.190;2023-11-19T14:07:26;3.92;;;1.40;;
23676;SDS011;31493;49.058;12.190;2023-11-19T14:09:54;2.60;;;1.30;;
23676;SDS011;31493;49.058;12.190;2023-11-19T14:12:21;4.50;;;1.40;;
23676;SDS011;31493;49.058;12.190;2023-11-19T14:14:48;4.40;;;1.30;;
23676;SDS011;31493;49.058;12.190;2023-11-19T14:17:15;4.05;;;1.30;;
23676;SDS011;31493;49.058;12.190;2023-11-19T14:19:42;3.35;;;1.15;;
23676;SDS011;31493;49.058;12.190;2023-11-19T14:22:11;2.60;;;1.10;;
23676;SDS011;31493;49.058;12.190;2023-11-19T14:24:38;3.28;;;1.10;;
23676;SDS011;31493;49.058;12.190;2023-11-19T14:27:06;9.15;;;1.45;;
23676;SDS011;31493;49.058;12.190;2023-11-19T14:29:33;2.45;;;1.10;;
23676;SDS011;31493;49.058;12.190;2023-11-19T14:32:01;1.92;;;1.30;;
23676;SDS011;31493;49.058;12.190;2023-11-19T14:34:28;2.53;;;1.38;;
23676;SDS011;31493;49.058;12.190;2023-11-19T14:36:56;3.63;;;1.40;;
23676;SDS011;31493;49.058;12.190;2023-11-19T14:39:24;2.05;;;1.10;;
23676;SDS011;31493;49.058;12.190;2023-11-19T14:41:51;3.20;;;1.20;;
23676;SDS011;31493;49.058;12.190;2023-11-19T14:44:23;3.40;;;1.75;;
23676;SDS011;31493;49.058;12.190;2023-11-19T14:46:50;4.32;;;2.13;;
23676;SDS011;31493;49.058;12.190;2023-11-19T14:49:17;4.47;;;1.85;;
23676;SDS011;31493;49.058;12.190;2023-11-19T14:51:44;2.58;;;1.13;;
23676;SDS011;31493;49.058;12.190;2023-11-19T14:54:11;2.60;;;0.98;;